83MU weather

Dalbom Ultralightport
Stella, Missouri, United States

Public forecast

Using degrees Fahrenheit for public forecast. Weather courtesy of forecast.io.

Closest aviation weather report (METAR) to Dalbom Ultralightport

Closest report is Monett Municipal Airport, 12.6 nm (23.4 km) NE. Retrieved 2020/02/20 04:35 UTC (0 seconds ago):

KHFJ 200435Z AUTO 04009KT 10SM SCT075 BKN090 OVC110 05/M05 A3041 RMK AO2

Closest aviation forecast (TAF) to Dalbom Ultralightport

Closest forecast is Rogers Municipal Airport-Carter Field, 24.4 nm (45.1 km) SSE. Retrieved 2020-02-20 00:30 UTC (4 hours ago):

TAF KROG 192328Z 2000/2024 06006KT P6SM SCT150 BKN250 FM200600 06007KT P6SM VCSH OVC150 FM200900 06008KT P6SM SCT022 OVC060 PROB30 2009/2013 4SM -SN OVC018 FM201300 02012G20KT P6SM BKN020 FM201900 01012G20KT P6SM BKN050